createdAt,value
2022-10-23T00:01:38.832Z,7.03
2022-10-23T00:04:20.340Z,7.18
2022-10-23T00:06:50.637Z,6.80
2022-10-23T00:09:23.076Z,7.10
2022-10-23T00:11:53.536Z,6.68
2022-10-23T00:14:23.260Z,6.90
2022-10-23T00:16:50.710Z,6.90
2022-10-23T00:19:19.910Z,8.05
2022-10-23T00:21:48.183Z,7.30
2022-10-23T00:24:18.512Z,6.43
2022-10-23T00:26:48.185Z,6.68
2022-10-23T00:29:15.672Z,6.40
2022-10-23T00:31:43.510Z,6.70
2022-10-23T00:34:11.159Z,6.78
2022-10-23T00:36:39.483Z,6.78
2022-10-23T00:39:06.944Z,7.10
2022-10-23T00:41:34.863Z,6.88
2022-10-23T00:44:04.428Z,7.45
2022-10-23T00:46:32.706Z,7.05
2022-10-23T00:49:01.353Z,7.45
2022-10-23T00:51:32.535Z,7.53
2022-10-23T00:54:22.965Z,7.82
2022-10-23T00:56:51.198Z,8.55
2022-10-23T00:59:18.413Z,7.72
2022-10-23T01:01:46.020Z,8.07
2022-10-23T01:04:13.460Z,7.95
2022-10-23T01:07:03.415Z,8.10
2022-10-23T01:09:34.152Z,8.50
2022-10-23T01:12:10.969Z,7.65
2022-10-23T01:14:59.687Z,8.23
2022-10-23T01:17:42.305Z,7.82
2022-10-23T01:20:14.576Z,8.13
2022-10-23T01:23:18.738Z,8.40
2022-10-23T01:25:56.283Z,8.98
2022-10-23T01:28:34.081Z,9.18
2022-10-23T01:31:02.629Z,9.82
2022-10-23T01:33:36.778Z,8.70
2022-10-23T01:36:24.551Z,8.65
2022-10-23T01:38:52.083Z,9.30
2022-10-23T01:41:25.878Z,9.57
2022-10-23T01:44:07.417Z,9.90
2022-10-23T01:46:38.135Z,9.65
2022-10-23T01:49:08.530Z,8.80
2022-10-23T01:51:37.249Z,9.70
2022-10-23T01:54:07.949Z,9.30
2022-10-23T01:56:40.271Z,9.45
2022-10-23T01:59:13.762Z,9.65
2022-10-23T02:01:45.587Z,9.48
2022-10-23T02:04:15.647Z,9.45
2022-10-23T02:06:49.017Z,9.95
2022-10-23T02:09:17.603Z,9.15
2022-10-23T02:11:57.937Z,9.60
2022-10-23T04:30:42.827Z,5.00
2022-10-23T04:33:10.977Z,5.15
2022-10-23T04:35:38.235Z,5.18
2022-10-23T04:38:08.251Z,5.35
2022-10-23T04:40:36.558Z,5.00
2022-10-23T04:43:15.710Z,4.97
2022-10-23T04:45:46.732Z,5.50
2022-10-23T04:48:16.115Z,4.90
2022-10-23T04:50:43.602Z,5.47
2022-10-23T04:53:11.485Z,4.68
2022-10-23T04:55:53.432Z,4.88
2022-10-23T04:58:21.213Z,5.38
2022-10-23T05:00:51.035Z,4.75
2022-10-23T05:03:22.218Z,4.70
2022-10-23T05:05:53.924Z,5.80
2022-10-23T05:08:35.573Z,5.90
2022-10-23T05:11:05.588Z,5.78
2022-10-23T05:13:39.632Z,5.30
2022-10-23T05:16:13.436Z,4.18
2022-10-23T05:18:48.175Z,4.38
2022-10-23T05:21:27.706Z,4.30
2022-10-23T05:23:55.610Z,3.38
2022-10-23T05:26:22.933Z,3.40
2022-10-23T05:28:50.102Z,3.28
2022-10-23T05:31:25.211Z,3.20
2022-10-23T05:33:57.657Z,3.17
2022-10-23T05:36:25.868Z,2.65
2022-10-23T05:38:53.687Z,3.45
2022-10-23T05:41:20.944Z,2.83
2022-10-23T05:43:48.681Z,2.72
2022-10-23T05:46:16.048Z,2.55
2022-10-23T05:48:46.306Z,3.22
2022-10-23T05:51:20.214Z,3.15
2022-10-23T05:53:51.523Z,2.92
2022-10-23T05:56:20.817Z,2.58
2022-10-23T05:58:49.398Z,2.75
2022-10-23T06:01:18.543Z,3.60
2022-10-23T06:03:46.141Z,3.20
2022-10-23T06:06:22.096Z,3.00
2022-10-23T06:08:49.356Z,2.97
2022-10-23T06:11:16.661Z,2.90
2022-10-23T06:13:45.535Z,3.08
2022-10-23T06:16:20.391Z,3.38
2022-10-23T06:18:47.905Z,3.70
2022-10-23T06:21:15.821Z,3.42
2022-10-23T06:23:46.774Z,3.38
2022-10-23T06:26:15.957Z,2.80
2022-10-23T06:28:43.772Z,3.28
2022-10-23T06:31:13.534Z,3.72
2022-10-23T06:33:41.851Z,3.15
2022-10-23T06:36:10.854Z,3.70
2022-10-23T06:38:41.703Z,3.22
2022-10-23T06:41:14.910Z,2.90
2022-10-23T06:43:43.250Z,3.53
2022-10-23T06:46:10.911Z,3.55
2022-10-23T06:48:38.401Z,3.20
2022-10-23T06:51:08.246Z,2.90
2022-10-23T06:53:37.644Z,3.20
2022-10-23T06:56:06.780Z,3.00
2022-10-23T06:58:35.125Z,4.25
2022-10-23T07:01:05.080Z,3.90
2022-10-23T07:03:32.911Z,4.53
2022-10-23T07:06:01.928Z,4.97
2022-10-23T07:08:29.721Z,5.47
2022-10-23T07:10:57.951Z,5.53
2022-10-23T07:13:25.548Z,5.90
2022-10-23T07:15:52.850Z,6.28
2022-10-23T07:18:20.358Z,6.15
2022-10-23T07:20:49.520Z,6.22
2022-10-23T07:23:17.422Z,6.85
2022-10-23T07:25:45.285Z,6.40
2022-10-23T07:28:12.599Z,6.53
2022-10-23T07:30:41.427Z,7.13
2022-10-23T07:33:11.242Z,6.25
2022-10-23T07:35:42.835Z,7.07
2022-10-23T07:38:10.160Z,7.03
2022-10-23T07:40:38.217Z,6.40
2022-10-23T07:43:05.617Z,6.53
2022-10-23T07:45:33.004Z,8.00
2022-10-23T07:48:01.005Z,6.30
2022-10-23T07:50:28.498Z,7.30
2022-10-23T07:52:57.253Z,7.55
2022-10-23T07:55:24.779Z,6.93
2022-10-23T07:57:52.719Z,6.43
2022-10-23T08:00:21.410Z,5.63
2022-10-23T08:02:50.392Z,5.55
2022-10-23T08:05:19.727Z,5.60
2022-10-23T08:07:47.260Z,6.80
2022-10-23T08:10:21.633Z,4.55
2022-10-23T08:12:49.000Z,3.97
2022-10-23T08:15:16.497Z,4.40
2022-10-23T08:17:45.714Z,3.20
2022-10-23T08:20:13.962Z,3.50
2022-10-23T08:22:41.513Z,3.40
2022-10-23T08:25:12.340Z,4.00
2022-10-23T08:27:40.642Z,3.25
2022-10-23T08:30:10.692Z,2.88
2022-10-23T08:32:38.544Z,3.00
2022-10-23T08:35:06.745Z,3.30
2022-10-23T08:37:34.414Z,3.25
2022-10-23T08:40:03.313Z,3.00
2022-10-23T08:42:31.000Z,2.63
2022-10-23T08:45:27.182Z,2.30
2022-10-23T08:48:13.050Z,2.15
2022-10-23T08:50:44.454Z,2.25
2022-10-23T08:53:26.293Z,3.05
2022-10-23T08:56:18.360Z,3.05
2022-10-23T08:59:00.207Z,2.17
2022-10-23T09:01:43.668Z,1.80
2022-10-23T09:04:13.714Z,2.17
2022-10-23T09:07:00.547Z,1.80
2022-10-23T09:09:47.305Z,1.75
2022-10-23T09:12:22.008Z,3.17
2022-10-23T09:14:58.458Z,4.15
2022-10-23T09:17:34.217Z,8.75
2022-10-23T09:20:21.291Z,6.10
2022-10-23T09:22:58.717Z,5.18
2022-10-23T09:25:34.085Z,5.20
2022-10-23T09:28:05.249Z,5.32
2022-10-23T09:30:39.185Z,4.88
2022-10-23T09:33:23.889Z,4.53
2022-10-23T09:36:14.943Z,4.32
2022-10-23T09:38:45.484Z,3.50
2022-10-23T09:41:18.566Z,4.20
2022-10-23T09:43:46.235Z,3.67
2022-10-23T09:46:13.806Z,3.40
2022-10-23T09:48:44.827Z,3.38
2022-10-23T09:51:21.763Z,2.80
2022-10-23T09:53:59.246Z,3.00
2022-10-23T09:56:31.104Z,9.90
2022-10-23T09:59:13.221Z,3.13
2022-10-23T10:01:55.291Z,3.78
2022-10-23T10:04:41.953Z,3.00
2022-10-23T10:07:24.905Z,3.03
2022-10-23T10:09:56.895Z,2.53
2022-10-23T10:12:31.794Z,2.80
2022-10-23T10:15:10.324Z,2.63
2022-10-23T10:17:51.721Z,3.28
2022-10-23T10:20:41.740Z,3.95
2022-10-23T10:23:27.385Z,2.40
2022-10-23T10:26:15.794Z,2.08
2022-10-23T10:29:18.538Z,1.90
2022-10-23T10:32:05.023Z,2.70
2022-10-23T10:34:50.484Z,7.88
2022-10-23T10:37:22.776Z,5.00
2022-10-23T10:40:06.443Z,2.88
2022-10-23T10:43:11.300Z,3.15
2022-10-23T10:45:42.491Z,2.65
2022-10-23T10:48:14.082Z,2.30
2022-10-23T10:50:55.352Z,2.60
2022-10-23T10:53:41.135Z,2.45
2022-10-23T10:56:12.796Z,2.95
2022-10-23T10:58:41.733Z,10.43
2022-10-23T11:01:36.482Z,4.28
2022-10-23T11:04:24.574Z,2.45
2022-10-23T11:06:56.406Z,2.95
2022-10-23T11:09:33.740Z,2.83
2022-10-23T11:12:07.168Z,3.33
2022-10-23T11:14:34.910Z,4.25
2022-10-23T11:17:17.246Z,4.85
2022-10-23T11:19:58.123Z,3.70
2022-10-23T11:22:37.805Z,4.25
2022-10-23T11:25:26.956Z,4.28
2022-10-23T11:28:15.780Z,4.10
2022-10-23T11:31:01.418Z,4.18
2022-10-23T11:33:38.390Z,4.57
2022-10-23T11:36:17.247Z,4.30
2022-10-23T11:38:52.418Z,6.13
2022-10-23T11:41:29.657Z,4.20
2022-10-23T11:44:04.708Z,4.10
2022-10-23T11:46:38.494Z,5.43
2022-10-23T11:49:06.938Z,6.20
2022-10-23T11:51:41.811Z,10.95
2022-10-23T11:54:13.699Z,6.38
2022-10-23T11:57:17.321Z,6.70
2022-10-23T11:59:47.590Z,4.35
2022-10-23T12:02:32.083Z,5.10
2022-10-23T12:05:26.348Z,4.63
2022-10-23T12:07:57.782Z,4.43
2022-10-23T12:10:34.696Z,4.20
2022-10-23T12:13:06.399Z,4.75
2022-10-23T12:15:37.217Z,5.22
2022-10-23T12:18:14.792Z,4.25
2022-10-23T12:20:56.603Z,4.82
2022-10-23T12:23:30.411Z,4.60
2022-10-23T12:26:21.995Z,5.40
2022-10-23T12:29:21.039Z,5.72
2022-10-23T12:32:06.685Z,5.60
2022-10-23T12:34:45.625Z,6.30
2022-10-23T12:37:51.654Z,5.70
2022-10-23T12:40:19.356Z,5.57
2022-10-23T12:42:52.904Z,6.80
2022-10-23T12:45:25.998Z,6.65
2022-10-23T12:47:53.682Z,6.57
2022-10-23T12:50:25.260Z,7.10
2022-10-23T12:53:01.128Z,8.07
2022-10-23T12:55:33.639Z,6.75
2022-10-23T12:58:03.557Z,7.00
2022-10-23T13:00:31.234Z,6.13
2022-10-23T13:03:03.423Z,6.88
2022-10-23T13:05:33.592Z,6.53
2022-10-23T13:08:04.195Z,6.13
2022-10-23T13:10:33.420Z,6.45
2022-10-23T13:13:05.316Z,7.03
2022-10-23T13:15:51.510Z,5.68
2022-10-23T13:18:20.116Z,6.53
2022-10-23T13:20:53.900Z,6.80
2022-10-23T13:23:34.870Z,6.18
2022-10-23T13:26:19.838Z,6.40
2022-10-23T13:28:47.488Z,4.90
2022-10-23T13:31:15.265Z,5.38
2022-10-23T13:33:45.995Z,5.78
2022-10-23T13:36:16.944Z,5.40
2022-10-23T13:39:00.800Z,6.00
2022-10-23T13:41:31.183Z,7.72
2022-10-23T13:43:58.592Z,5.70
2022-10-23T13:46:26.820Z,5.28
2022-10-23T13:48:55.257Z,5.55
2022-10-23T13:51:29.029Z,5.45
2022-10-23T13:53:58.755Z,5.95
2022-10-23T13:56:30.366Z,5.32
2022-10-23T13:58:57.865Z,6.65
2022-10-23T14:01:30.872Z,6.63
2022-10-23T14:03:59.913Z,6.90
2022-10-23T14:06:27.470Z,6.25
2022-10-23T14:08:54.923Z,6.72
2022-10-23T14:11:23.945Z,7.00
2022-10-23T14:13:54.352Z,6.50
2022-10-23T14:16:21.877Z,6.68
2022-10-23T14:18:49.525Z,8.60
2022-10-23T14:21:22.922Z,11.50
2022-10-23T14:23:51.935Z,8.50
2022-10-23T14:26:22.629Z,10.27
2022-10-23T14:28:53.765Z,8.73
2022-10-23T14:31:23.577Z,8.93
2022-10-23T14:33:58.664Z,8.65
2022-10-23T14:36:30.981Z,9.10
2022-10-23T14:39:08.363Z,11.05
2022-10-23T14:41:35.925Z,8.27
2022-10-23T14:44:03.201Z,7.68
2022-10-23T14:46:31.145Z,6.68
2022-10-23T14:49:02.288Z,7.13
2022-10-23T14:51:30.626Z,6.88
2022-10-23T14:54:01.978Z,6.00
2022-10-23T14:56:32.161Z,6.57
2022-10-23T14:59:02.973Z,9.98
2022-10-23T15:01:45.104Z,5.45
2022-10-23T15:04:19.298Z,5.97
2022-10-23T15:06:47.382Z,4.28
2022-10-23T15:09:15.659Z,3.88
2022-10-23T15:11:43.043Z,4.88
2022-10-23T15:14:12.306Z,3.88
2022-10-23T15:16:42.654Z,4.03
2022-10-23T15:19:15.285Z,3.20
2022-10-23T15:21:47.503Z,3.90
2022-10-23T15:24:17.038Z,4.07
2022-10-23T15:26:45.191Z,4.53
2022-10-23T15:29:14.976Z,5.72
2022-10-23T15:31:48.550Z,5.00
2022-10-23T15:34:21.279Z,4.20
2022-10-23T15:36:49.430Z,5.40
2022-10-23T15:39:19.744Z,4.60
2022-10-23T15:41:47.607Z,4.45
2022-10-23T15:44:19.769Z,5.63
2022-10-23T15:46:47.242Z,4.97
2022-10-23T15:49:15.054Z,4.18
2022-10-23T15:51:42.912Z,4.57
2022-10-23T15:54:17.132Z,4.32
2022-10-23T15:56:46.028Z,4.78
2022-10-23T15:59:13.808Z,6.88
2022-10-23T16:01:41.841Z,5.15
2022-10-23T16:04:09.621Z,4.80
2022-10-23T16:06:37.637Z,4.38
2022-10-23T16:09:05.054Z,4.90
2022-10-23T16:11:35.730Z,5.57
2022-10-23T16:14:04.299Z,6.18
2022-10-23T16:16:32.798Z,8.77
2022-10-23T16:19:01.810Z,4.70
2022-10-23T16:21:32.119Z,11.32
2022-10-23T16:24:03.575Z,5.90
2022-10-23T16:26:31.743Z,5.30
2022-10-23T16:29:03.029Z,8.40
2022-10-23T16:31:31.274Z,6.13
2022-10-23T16:34:00.535Z,5.63
2022-10-23T16:36:29.099Z,19.73
2022-10-23T16:38:57.228Z,8.20
2022-10-23T16:41:24.510Z,9.50
2022-10-23T16:43:52.082Z,8.32
2022-10-23T16:46:21.137Z,11.25
2022-10-23T16:48:52.993Z,10.02
2022-10-23T16:51:25.248Z,9.73
2022-10-23T16:53:53.366Z,8.95
2022-10-23T16:56:23.252Z,10.52
2022-10-23T16:58:50.636Z,16.08
2022-10-23T17:01:21.068Z,17.48
2022-10-23T17:03:52.742Z,15.48
2022-10-23T17:06:31.805Z,17.33
2022-10-23T17:09:06.336Z,17.23
2022-10-23T17:11:35.771Z,16.35
2022-10-23T17:14:21.351Z,15.50
2022-10-23T17:16:51.424Z,16.05
2022-10-23T17:19:43.674Z,16.45
2022-10-23T17:22:12.698Z,14.82
2022-10-23T17:24:41.598Z,10.95
2022-10-23T17:27:09.350Z,10.18
2022-10-23T17:29:36.795Z,9.35
2022-10-23T17:32:04.319Z,9.50
2022-10-23T17:34:36.257Z,8.70
2022-10-23T17:37:03.947Z,8.68
2022-10-23T17:39:31.350Z,9.25
2022-10-23T17:41:59.459Z,9.88
2022-10-23T17:44:29.159Z,10.40
2022-10-23T17:46:56.819Z,12.68
2022-10-23T17:49:33.743Z,13.50
2022-10-23T17:52:03.689Z,15.20
2022-10-23T17:54:30.949Z,16.23
2022-10-23T17:56:58.398Z,20.40
2022-10-23T17:59:28.763Z,21.13
2022-10-23T18:01:58.857Z,19.85
2022-10-23T18:04:29.466Z,23.17
2022-10-23T18:06:57.023Z,23.30
2022-10-23T18:09:24.478Z,27.55
2022-10-23T18:11:52.885Z,27.67
2022-10-23T18:14:26.184Z,26.52
2022-10-23T18:16:55.897Z,26.60
2022-10-23T18:19:23.708Z,28.48
2022-10-23T18:21:50.874Z,31.00
2022-10-23T18:24:19.820Z,30.52
2022-10-23T18:26:48.288Z,31.60
2022-10-23T18:29:17.504Z,31.85
2022-10-23T18:31:45.462Z,27.25
2022-10-23T18:34:21.333Z,28.23
2022-10-23T18:36:49.289Z,27.75
2022-10-23T18:39:22.290Z,26.92
2022-10-23T18:41:55.122Z,28.45
2022-10-23T18:44:23.581Z,27.00
2022-10-23T18:46:51.667Z,28.40
2022-10-23T18:49:19.501Z,28.17
2022-10-23T18:51:47.313Z,25.55
2022-10-23T18:54:17.113Z,20.02
2022-10-23T18:56:44.649Z,20.45
2022-10-23T18:59:14.952Z,21.33
2022-10-23T19:01:42.383Z,20.45
2022-10-23T19:04:15.830Z,18.20
2022-10-23T19:06:44.980Z,19.25
2022-10-23T19:09:16.553Z,18.30
2022-10-23T19:11:46.552Z,19.30
2022-10-23T19:14:13.990Z,18.50
2022-10-23T19:17:21.818Z,17.75
2022-10-23T19:19:52.541Z,15.40
2022-10-23T19:22:20.246Z,16.48
2022-10-23T19:24:58.048Z,17.30
2022-10-23T19:27:26.333Z,17.77
2022-10-23T19:29:54.584Z,20.92
2022-10-23T19:32:22.543Z,22.70
2022-10-23T19:34:50.935Z,24.15
2022-10-23T19:37:18.213Z,25.85
2022-10-23T19:39:45.520Z,19.58
2022-10-23T19:42:12.768Z,20.25
2022-10-23T19:44:40.012Z,19.27
2022-10-23T19:47:08.069Z,18.13
2022-10-23T19:49:35.425Z,18.98
2022-10-23T19:52:02.670Z,20.15
2022-10-23T19:54:31.552Z,19.55
2022-10-23T19:56:59.470Z,20.40
2022-10-23T19:59:26.824Z,19.88
2022-10-23T20:01:54.158Z,21.40
2022-10-23T20:04:21.437Z,18.27
2022-10-23T20:06:48.684Z,19.77
2022-10-23T20:09:18.705Z,19.85
2022-10-23T20:11:51.272Z,19.08
2022-10-23T20:14:18.859Z,18.67
2022-10-23T20:16:48.605Z,19.65
2022-10-23T20:19:19.588Z,18.40
2022-10-23T20:21:47.977Z,17.30
2022-10-23T20:24:19.379Z,17.52
2022-10-23T20:26:50.456Z,17.38
2022-10-23T20:29:18.544Z,17.75
2022-10-23T20:31:48.473Z,17.58
2022-10-23T20:34:16.056Z,18.27
2022-10-23T20:36:48.698Z,16.20
2022-10-23T20:39:24.578Z,17.25
2022-10-23T20:41:52.238Z,17.20
2022-10-23T20:44:19.822Z,16.65
2022-10-23T20:46:48.781Z,16.85
2022-10-23T20:49:16.433Z,16.13
2022-10-23T20:51:45.440Z,15.40
2022-10-23T20:54:14.197Z,14.82
2022-10-23T20:56:42.443Z,14.90
2022-10-23T20:59:15.022Z,14.18
2022-10-23T21:01:45.100Z,14.32
2022-10-23T21:04:13.935Z,14.57
2022-10-23T21:07:04.495Z,14.30
2022-10-23T21:09:30.303Z,12.52
2022-10-23T21:11:59.113Z,13.93
2022-10-23T21:14:28.884Z,12.80
2022-10-23T21:16:56.918Z,14.00
2022-10-23T21:19:25.163Z,13.30
2022-10-23T21:21:52.576Z,14.20
2022-10-23T21:24:21.377Z,14.07
2022-10-23T21:26:48.677Z,13.90
2022-10-23T21:29:20.174Z,15.82
2022-10-23T21:31:55.599Z,19.13
2022-10-23T21:34:24.434Z,19.15
2022-10-23T21:39:39.390Z,19.23
2022-10-23T21:42:06.658Z,18.25
2022-10-23T21:44:34.693Z,17.30
2022-10-23T21:47:02.208Z,16.73
2022-10-23T21:49:29.778Z,15.73
2022-10-23T21:51:57.176Z,13.70
2022-10-23T21:54:24.416Z,12.50
2022-10-23T21:56:53.820Z,11.60
2022-10-23T21:59:24.372Z,12.13
2022-10-23T22:01:53.194Z,11.65
2022-10-23T22:04:20.630Z,11.20
2022-10-23T22:06:49.802Z,11.95
2022-10-23T22:09:20.181Z,12.10
2022-10-23T22:11:52.665Z,11.40
2022-10-23T22:14:20.021Z,11.25
2022-10-23T22:16:48.345Z,12.75
2022-10-23T22:19:17.123Z,12.15
2022-10-23T22:21:44.744Z,11.82
2022-10-23T22:24:12.762Z,11.18
2022-10-23T22:26:42.941Z,11.07
2022-10-23T22:29:13.206Z,10.43
2022-10-23T22:31:44.224Z,9.90
2022-10-23T22:34:25.357Z,9.73
2022-10-23T22:37:01.758Z,10.05
2022-10-23T22:39:29.104Z,9.65
2022-10-23T22:41:56.483Z,9.70
2022-10-23T22:44:23.967Z,9.75
2022-10-23T22:46:52.550Z,12.18
2022-10-23T22:49:19.989Z,11.25
2022-10-23T22:51:50.108Z,11.68
2022-10-23T22:54:17.658Z,10.93
2022-10-23T22:56:46.971Z,12.90
2022-10-23T22:59:14.293Z,14.00
2022-10-23T23:01:44.370Z,14.13
2022-10-23T23:04:36.627Z,17.52
2022-10-23T23:07:00.361Z,16.73
2022-10-23T23:09:27.581Z,15.15
2022-10-23T23:11:57.902Z,16.25
2022-10-23T23:14:25.363Z,14.43
2022-10-23T23:16:56.409Z,14.60
2022-10-23T23:19:24.312Z,12.40
2022-10-23T23:21:58.315Z,11.95
2022-10-23T23:24:26.758Z,12.27
2022-10-23T23:26:57.906Z,11.85
2022-10-23T23:29:25.267Z,12.80
2022-10-23T23:31:52.818Z,11.98
2022-10-23T23:34:21.253Z,11.60
2022-10-23T23:36:51.047Z,12.05
2022-10-23T23:39:18.461Z,11.50
2022-10-23T23:41:46.150Z,10.50
2022-10-23T23:44:13.525Z,10.75
2022-10-23T23:46:42.842Z,10.55
2022-10-23T23:49:10.133Z,11.52
2022-10-23T23:51:38.024Z,10.60
2022-10-23T23:54:05.600Z,10.88
2022-10-23T23:56:32.959Z,10.75
2022-10-23T23:59:00.411Z,9.05
